sensor_id;sensor_type;location;lat;lon;timestamp;P1;durP1;ratioP1;P2;durP2;ratioP2
42144;SDS011;27813;43.516;11.890;2022-09-30T03:33:37;13.38;;;3.70;;
42144;SDS011;27813;43.516;11.890;2022-09-30T03:42:17;11.88;;;2.80;;
42144;SDS011;27813;43.516;11.890;2022-09-30T03:46:45;7.75;;;1.98;;
42144;SDS011;27813;43.516;11.890;2022-09-30T03:50:54;7.60;;;2.10;;
42144;SDS011;27813;43.516;11.890;2022-09-30T03:55:02;5.85;;;2.40;;
42144;SDS011;27813;43.516;11.890;2022-09-30T03:59:12;11.07;;;2.20;;
42144;SDS011;27813;43.516;11.890;2022-09-30T04:03:28;5.13;;;1.63;;
42144;SDS011;27813;43.516;11.890;2022-09-30T04:07:32;9.10;;;1.98;;
42144;SDS011;27813;43.516;11.890;2022-09-30T04:11:37;4.05;;;1.80;;
42144;SDS011;27813;43.516;11.890;2022-09-30T04:19:45;3.60;;;1.40;;
42144;SDS011;27813;43.516;11.890;2022-09-30T04:23:49;6.15;;;1.48;;
42144;SDS011;27813;43.516;11.890;2022-09-30T04:27:54;5.47;;;1.58;;
42144;SDS011;27813;43.516;11.890;2022-09-30T04:32:01;5.22;;;1.42;;
42144;SDS011;27813;43.516;11.890;2022-09-30T04:36:05;5.15;;;1.15;;
42144;SDS011;27813;43.516;11.890;2022-09-30T04:40:10;1.88;;;0.93;;
42144;SDS011;27813;43.516;11.890;2022-09-30T04:44:15;6.07;;;1.42;;
42144;SDS011;27813;43.516;11.890;2022-09-30T04:48:21;5.72;;;1.17;;
42144;SDS011;27813;43.516;11.890;2022-09-30T04:56:30;2.63;;;0.90;;
42144;SDS011;27813;43.516;11.890;2022-09-30T05:04:40;2.97;;;0.90;;
42144;SDS011;27813;43.516;11.890;2022-09-30T05:08:45;6.32;;;3.08;;
42144;SDS011;27813;43.516;11.890;2022-09-30T05:12:51;4.72;;;1.45;;
42144;SDS011;27813;43.516;11.890;2022-09-30T05:16:56;6.20;;;2.80;;
42144;SDS011;27813;43.516;11.890;2022-09-30T05:21:01;8.70;;;3.20;;
42144;SDS011;27813;43.516;11.890;2022-09-30T05:25:06;6.43;;;2.17;;
42144;SDS011;27813;43.516;11.890;2022-09-30T05:29:10;7.55;;;2.20;;
42144;SDS011;27813;43.516;11.890;2022-09-30T05:33:15;12.85;;;3.28;;
42144;SDS011;27813;43.516;11.890;2022-09-30T05:37:20;9.50;;;2.40;;
42144;SDS011;27813;43.516;11.890;2022-09-30T05:45:29;5.97;;;2.07;;
42144;SDS011;27813;43.516;11.890;2022-09-30T05:49:33;5.35;;;1.40;;
42144;SDS011;27813;43.516;11.890;2022-09-30T05:53:37;21.02;;;2.85;;
42144;SDS011;27813;43.516;11.890;2022-09-30T05:57:46;14.30;;;2.05;;
42144;SDS011;27813;43.516;11.890;2022-09-30T06:01:52;5.07;;;1.70;;
42144;SDS011;27813;43.516;11.890;2022-09-30T06:05:57;10.55;;;1.80;;
42144;SDS011;27813;43.516;11.890;2022-09-30T06:10:02;7.93;;;2.13;;
42144;SDS011;27813;43.516;11.890;2022-09-30T06:14:08;10.65;;;1.85;;
42144;SDS011;27813;43.516;11.890;2022-09-30T06:18:12;4.95;;;1.85;;
42144;SDS011;27813;43.516;11.890;2022-09-30T06:22:19;8.23;;;1.73;;
42144;SDS011;27813;43.516;11.890;2022-09-30T06:26:23;9.27;;;1.60;;
42144;SDS011;27813;43.516;11.890;2022-09-30T06:30:27;6.55;;;1.60;;
42144;SDS011;27813;43.516;11.890;2022-09-30T06:34:37;5.78;;;2.00;;
42144;SDS011;27813;43.516;11.890;2022-09-30T06:42:45;4.20;;;1.60;;
42144;SDS011;27813;43.516;11.890;2022-09-30T06:46:52;5.20;;;1.80;;
42144;SDS011;27813;43.516;11.890;2022-09-30T06:50:57;4.93;;;1.92;;
42144;SDS011;27813;43.516;11.890;2022-09-30T06:55:04;5.22;;;2.60;;
42144;SDS011;27813;43.516;11.890;2022-09-30T06:59:12;6.00;;;2.47;;
42144;SDS011;27813;43.516;11.890;2022-09-30T07:03:24;11.98;;;3.30;;
42144;SDS011;27813;43.516;11.890;2022-09-30T07:07:31;6.80;;;2.80;;
42144;SDS011;27813;43.516;11.890;2022-09-30T07:11:37;7.20;;;2.63;;
42144;SDS011;27813;43.516;11.890;2022-09-30T07:15:42;7.07;;;2.75;;
42144;SDS011;27813;43.516;11.890;2022-09-30T07:19:46;11.05;;;2.95;;
42144;SDS011;27813;43.516;11.890;2022-09-30T07:23:51;29.15;;;4.03;;
42144;SDS011;27813;43.516;11.890;2022-09-30T07:27:55;8.40;;;2.80;;
42144;SDS011;27813;43.516;11.890;2022-09-30T07:32:02;15.60;;;3.22;;
42144;SDS011;27813;43.516;11.890;2022-09-30T07:36:07;6.05;;;2.25;;
42144;SDS011;27813;43.516;11.890;2022-09-30T07:40:13;5.30;;;2.50;;
42144;SDS011;27813;43.516;11.890;2022-09-30T07:44:17;6.38;;;2.10;;
42144;SDS011;27813;43.516;11.890;2022-09-30T07:48:22;4.63;;;2.03;;
42144;SDS011;27813;43.516;11.890;2022-09-30T07:52:45;4.00;;;2.50;;
42144;SDS011;27813;43.516;11.890;2022-09-30T08:01:13;8.77;;;2.05;;
42144;SDS011;27813;43.516;11.890;2022-09-30T08:05:18;4.63;;;1.60;;
42144;SDS011;27813;43.516;11.890;2022-09-30T08:09:24;3.05;;;1.75;;
42144;SDS011;27813;43.516;11.890;2022-09-30T08:13:30;7.03;;;2.13;;
42144;SDS011;27813;43.516;11.890;2022-09-30T08:17:35;5.95;;;2.22;;
42144;SDS011;27813;43.516;11.890;2022-09-30T08:21:39;7.35;;;2.90;;
42144;SDS011;27813;43.516;11.890;2022-09-30T08:25:45;4.90;;;2.55;;
42144;SDS011;27813;43.516;11.890;2022-09-30T08:29:50;5.00;;;3.05;;
42144;SDS011;27813;43.516;11.890;2022-09-30T08:33:59;5.47;;;4.45;;
42144;SDS011;27813;43.516;11.890;2022-09-30T08:38:05;4.78;;;3.55;;
42144;SDS011;27813;43.516;11.890;2022-09-30T08:46:54;6.32;;;3.67;;
42144;SDS011;27813;43.516;11.890;2022-09-30T08:55:47;5.85;;;3.45;;
42144;SDS011;27813;43.516;11.890;2022-09-30T08:59:57;10.68;;;3.75;;
42144;SDS011;27813;43.516;11.890;2022-09-30T09:04:08;7.30;;;3.53;;
42144;SDS011;27813;43.516;11.890;2022-09-30T09:12:28;3.93;;;2.47;;
42144;SDS011;27813;43.516;11.890;2022-09-30T09:17:02;6.03;;;2.25;;
42144;SDS011;27813;43.516;11.890;2022-09-30T09:21:28;4.47;;;2.10;;
42144;SDS011;27813;43.516;11.890;2022-09-30T09:25:40;2.83;;;1.90;;
42144;SDS011;27813;43.516;11.890;2022-09-30T09:30:04;4.35;;;1.90;;
42144;SDS011;27813;43.516;11.890;2022-09-30T09:38:34;2.97;;;2.20;;
42144;SDS011;27813;43.516;11.890;2022-09-30T09:43:05;5.25;;;2.42;;
42144;SDS011;27813;43.516;11.890;2022-09-30T09:47:21;2.58;;;2.08;;
42144;SDS011;27813;43.516;11.890;2022-09-30T09:51:30;3.63;;;2.80;;
42144;SDS011;27813;43.516;11.890;2022-09-30T09:55:41;3.42;;;2.30;;
42144;SDS011;27813;43.516;11.890;2022-09-30T09:59:59;2.80;;;2.08;;
42144;SDS011;27813;43.516;11.890;2022-09-30T10:04:25;9.65;;;2.80;;
42144;SDS011;27813;43.516;11.890;2022-09-30T10:08:36;28.02;;;2.95;;
42144;SDS011;27813;43.516;11.890;2022-09-30T10:12:42;4.53;;;1.80;;
42144;SDS011;27813;43.516;11.890;2022-09-30T10:16:53;5.03;;;2.15;;
42144;SDS011;27813;43.516;11.890;2022-09-30T10:21:05;4.40;;;2.13;;
42144;SDS011;27813;43.516;11.890;2022-09-30T10:25:23;9.50;;;2.50;;
42144;SDS011;27813;43.516;11.890;2022-09-30T10:29:29;20.35;;;3.42;;
42144;SDS011;27813;43.516;11.890;2022-09-30T10:33:40;13.45;;;2.83;;
42144;SDS011;27813;43.516;11.890;2022-09-30T10:37:49;8.70;;;3.05;;
42144;SDS011;27813;43.516;11.890;2022-09-30T10:42:17;16.02;;;3.10;;
42144;SDS011;27813;43.516;11.890;2022-09-30T10:46:30;5.30;;;2.45;;
42144;SDS011;27813;43.516;11.890;2022-09-30T10:50:39;25.23;;;3.58;;
42144;SDS011;27813;43.516;11.890;2022-09-30T10:58:57;8.95;;;3.63;;
42144;SDS011;27813;43.516;11.890;2022-09-30T11:03:10;13.38;;;4.15;;
42144;SDS011;27813;43.516;11.890;2022-09-30T11:11:49;9.07;;;3.53;;
42144;SDS011;27813;43.516;11.890;2022-09-30T11:24:49;5.43;;;2.38;;
42144;SDS011;27813;43.516;11.890;2022-09-30T11:33:27;8.98;;;2.58;;
42144;SDS011;27813;43.516;11.890;2022-09-30T11:42:25;12.67;;;3.30;;
42144;SDS011;27813;43.516;11.890;2022-09-30T11:59:36;6.47;;;2.75;;
42144;SDS011;27813;43.516;11.890;2022-09-30T12:04:09;20.42;;;9.30;;
42144;SDS011;27813;43.516;11.890;2022-09-30T12:08:23;10.27;;;4.82;;
42144;SDS011;27813;43.516;11.890;2022-09-30T12:12:28;8.23;;;3.25;;
42144;SDS011;27813;43.516;11.890;2022-09-30T12:16:37;5.82;;;3.30;;
42144;SDS011;27813;43.516;11.890;2022-09-30T12:20:57;6.15;;;3.60;;
42144;SDS011;27813;43.516;11.890;2022-09-30T12:25:17;6.78;;;3.58;;
42144;SDS011;27813;43.516;11.890;2022-09-30T12:29:33;6.20;;;3.38;;
42144;SDS011;27813;43.516;11.890;2022-09-30T12:39:10;4.68;;;2.47;;
42144;SDS011;27813;43.516;11.890;2022-09-30T12:43:44;4.63;;;2.25;;
42144;SDS011;27813;43.516;11.890;2022-09-30T12:47:58;3.10;;;2.45;;
42144;SDS011;27813;43.516;11.890;2022-09-30T12:52:11;3.60;;;1.98;;
42144;SDS011;27813;43.516;11.890;2022-09-30T12:56:19;3.05;;;1.77;;
42144;SDS011;27813;43.516;11.890;2022-09-30T13:00:32;3.20;;;2.08;;
42144;SDS011;27813;43.516;11.890;2022-09-30T13:04:39;5.47;;;1.70;;
42144;SDS011;27813;43.516;11.890;2022-09-30T13:09:06;5.72;;;2.40;;
42144;SDS011;27813;43.516;11.890;2022-09-30T13:13:20;4.28;;;1.80;;
42144;SDS011;27813;43.516;11.890;2022-09-30T13:17:27;3.30;;;1.90;;
42144;SDS011;27813;43.516;11.890;2022-09-30T13:21:31;3.33;;;1.90;;
42144;SDS011;27813;43.516;11.890;2022-09-30T13:26:13;4.40;;;2.45;;
42144;SDS011;27813;43.516;11.890;2022-09-30T13:34:22;2.38;;;1.80;;
42144;SDS011;27813;43.516;11.890;2022-09-30T13:38:38;3.50;;;1.90;;
42144;SDS011;27813;43.516;11.890;2022-09-30T13:42:45;4.50;;;1.77;;
42144;SDS011;27813;43.516;11.890;2022-09-30T13:46:58;3.70;;;1.80;;
42144;SDS011;27813;43.516;11.890;2022-09-30T13:51:13;2.33;;;1.63;;
42144;SDS011;27813;43.516;11.890;2022-09-30T13:55:23;3.63;;;1.77;;
42144;SDS011;27813;43.516;11.890;2022-09-30T14:22:26;2.75;;;1.48;;
42144;SDS011;27813;43.516;11.890;2022-09-30T14:31:01;2.13;;;1.33;;
42144;SDS011;27813;43.516;11.890;2022-09-30T14:35:19;3.40;;;1.40;;
42144;SDS011;27813;43.516;11.890;2022-09-30T14:39:32;2.22;;;1.20;;
42144;SDS011;27813;43.516;11.890;2022-09-30T14:43:39;3.58;;;1.48;;
42144;SDS011;27813;43.516;11.890;2022-09-30T14:47:46;2.83;;;1.50;;
42144;SDS011;27813;43.516;11.890;2022-09-30T14:51:55;3.90;;;1.58;;
42144;SDS011;27813;43.516;11.890;2022-09-30T14:56:19;4.22;;;1.48;;
42144;SDS011;27813;43.516;11.890;2022-09-30T15:00:33;4.03;;;1.35;;
42144;SDS011;27813;43.516;11.890;2022-09-30T15:05:03;3.03;;;1.35;;
42144;SDS011;27813;43.516;11.890;2022-09-30T15:13:40;5.30;;;1.50;;
42144;SDS011;27813;43.516;11.890;2022-09-30T15:17:45;3.47;;;1.40;;
42144;SDS011;27813;43.516;11.890;2022-09-30T15:21:50;4.72;;;1.20;;
42144;SDS011;27813;43.516;11.890;2022-09-30T15:26:00;3.75;;;1.80;;
42144;SDS011;27813;43.516;11.890;2022-09-30T15:34:21;3.33;;;1.55;;
42144;SDS011;27813;43.516;11.890;2022-09-30T15:38:28;4.47;;;1.70;;
42144;SDS011;27813;43.516;11.890;2022-09-30T15:46:59;5.55;;;2.55;;
42144;SDS011;27813;43.516;11.890;2022-09-30T15:51:28;7.95;;;2.55;;
42144;SDS011;27813;43.516;11.890;2022-09-30T15:55:35;17.52;;;3.05;;
42144;SDS011;27813;43.516;11.890;2022-09-30T16:00:00;13.52;;;3.25;;
42144;SDS011;27813;43.516;11.890;2022-09-30T16:08:25;70.65;;;6.65;;
42144;SDS011;27813;43.516;11.890;2022-09-30T16:12:40;22.73;;;3.72;;
42144;SDS011;27813;43.516;11.890;2022-09-30T16:17:03;30.80;;;12.15;;
42144;SDS011;27813;43.516;11.890;2022-09-30T16:21:26;39.05;;;10.70;;
42144;SDS011;27813;43.516;11.890;2022-09-30T16:25:34;23.13;;;4.45;;
42144;SDS011;27813;43.516;11.890;2022-09-30T16:29:39;51.08;;;4.55;;
42144;SDS011;27813;43.516;11.890;2022-09-30T16:33:52;6.65;;;2.63;;
42144;SDS011;27813;43.516;11.890;2022-09-30T16:38:04;21.55;;;2.95;;
42144;SDS011;27813;43.516;11.890;2022-09-30T16:42:13;5.20;;;1.85;;
42144;SDS011;27813;43.516;11.890;2022-09-30T16:46:19;4.63;;;1.83;;
42144;SDS011;27813;43.516;11.890;2022-09-30T16:54:54;4.47;;;1.77;;
42144;SDS011;27813;43.516;11.890;2022-09-30T16:59:00;3.97;;;1.63;;
42144;SDS011;27813;43.516;11.890;2022-09-30T17:03:11;9.57;;;1.90;;
42144;SDS011;27813;43.516;11.890;2022-09-30T17:07:17;13.18;;;2.72;;
42144;SDS011;27813;43.516;11.890;2022-09-30T17:11:25;28.45;;;4.10;;
42144;SDS011;27813;43.516;11.890;2022-09-30T17:15:34;9.90;;;2.20;;
42144;SDS011;27813;43.516;11.890;2022-09-30T17:19:39;9.73;;;2.70;;
42144;SDS011;27813;43.516;11.890;2022-09-30T17:23:44;11.73;;;2.50;;
42144;SDS011;27813;43.516;11.890;2022-09-30T17:27:48;6.72;;;2.72;;
42144;SDS011;27813;43.516;11.890;2022-09-30T17:31:54;14.40;;;2.50;;
42144;SDS011;27813;43.516;11.890;2022-09-30T17:36:00;14.40;;;2.95;;
42144;SDS011;27813;43.516;11.890;2022-09-30T17:40:09;32.25;;;5.28;;
42144;SDS011;27813;43.516;11.890;2022-09-30T17:44:32;36.08;;;15.85;;
42144;SDS011;27813;43.516;11.890;2022-09-30T17:48:39;30.63;;;7.22;;
42144;SDS011;27813;43.516;11.890;2022-09-30T17:52:45;11.63;;;3.42;;
42144;SDS011;27813;43.516;11.890;2022-09-30T17:56:50;17.88;;;4.63;;
42144;SDS011;27813;43.516;11.890;2022-09-30T18:00:55;20.80;;;4.65;;
42144;SDS011;27813;43.516;11.890;2022-09-30T18:10:42;7.30;;;3.00;;
42144;SDS011;27813;43.516;11.890;2022-09-30T18:14:49;11.48;;;3.35;;
42144;SDS011;27813;43.516;11.890;2022-09-30T18:19:01;9.02;;;3.05;;
42144;SDS011;27813;43.516;11.890;2022-09-30T18:23:09;24.15;;;3.80;;
42144;SDS011;27813;43.516;11.890;2022-09-30T18:27:16;15.32;;;5.15;;
42144;SDS011;27813;43.516;11.890;2022-09-30T18:31:31;23.20;;;10.68;;
42144;SDS011;27813;43.516;11.890;2022-09-30T18:35:41;15.93;;;5.88;;
42144;SDS011;27813;43.516;11.890;2022-09-30T18:39:46;14.32;;;4.53;;
42144;SDS011;27813;43.516;11.890;2022-09-30T18:43:54;12.98;;;4.45;;
42144;SDS011;27813;43.516;11.890;2022-09-30T18:48:05;10.63;;;3.22;;
42144;SDS011;27813;43.516;11.890;2022-09-30T18:52:11;10.27;;;3.25;;
42144;SDS011;27813;43.516;11.890;2022-09-30T18:56:37;7.07;;;3.25;;
42144;SDS011;27813;43.516;11.890;2022-09-30T19:00:43;10.52;;;3.65;;
42144;SDS011;27813;43.516;11.890;2022-09-30T19:04:51;11.38;;;3.25;;
42144;SDS011;27813;43.516;11.890;2022-09-30T19:09:01;7.70;;;3.83;;
42144;SDS011;27813;43.516;11.890;2022-09-30T19:13:08;15.70;;;4.28;;
42144;SDS011;27813;43.516;11.890;2022-09-30T19:17:20;11.18;;;3.83;;
42144;SDS011;27813;43.516;11.890;2022-09-30T19:21:24;10.63;;;3.60;;
42144;SDS011;27813;43.516;11.890;2022-09-30T19:25:29;9.18;;;3.20;;
42144;SDS011;27813;43.516;11.890;2022-09-30T19:29:45;11.20;;;4.32;;
42144;SDS011;27813;43.516;11.890;2022-09-30T19:33:53;14.13;;;4.00;;
42144;SDS011;27813;43.516;11.890;2022-09-30T19:38:01;7.45;;;2.40;;
42144;SDS011;27813;43.516;11.890;2022-09-30T19:42:07;5.85;;;2.13;;
42144;SDS011;27813;43.516;11.890;2022-09-30T19:46:12;6.38;;;2.08;;
42144;SDS011;27813;43.516;11.890;2022-09-30T19:50:17;6.93;;;2.38;;
42144;SDS011;27813;43.516;11.890;2022-09-30T19:54:21;4.25;;;2.50;;
42144;SDS011;27813;43.516;11.890;2022-09-30T19:58:44;10.40;;;2.40;;
42144;SDS011;27813;43.516;11.890;2022-09-30T20:02:51;7.70;;;2.80;;
42144;SDS011;27813;43.516;11.890;2022-09-30T20:06:55;6.53;;;2.45;;
42144;SDS011;27813;43.516;11.890;2022-09-30T20:11:07;6.13;;;3.45;;
42144;SDS011;27813;43.516;11.890;2022-09-30T20:15:23;8.60;;;3.00;;
42144;SDS011;27813;43.516;11.890;2022-09-30T20:19:51;5.72;;;2.47;;
42144;SDS011;27813;43.516;11.890;2022-09-30T20:24:15;12.25;;;5.05;;
42144;SDS011;27813;43.516;11.890;2022-09-30T20:28:21;12.15;;;5.85;;
42144;SDS011;27813;43.516;11.890;2022-09-30T20:32:27;9.75;;;3.75;;
42144;SDS011;27813;43.516;11.890;2022-09-30T20:36:33;6.55;;;3.70;;
42144;SDS011;27813;43.516;11.890;2022-09-30T20:40:38;7.97;;;4.20;;
42144;SDS011;27813;43.516;11.890;2022-09-30T20:44:42;9.82;;;3.90;;
42144;SDS011;27813;43.516;11.890;2022-09-30T20:48:55;9.07;;;3.10;;
42144;SDS011;27813;43.516;11.890;2022-09-30T20:53:08;7.18;;;2.80;;
42144;SDS011;27813;43.516;11.890;2022-09-30T20:57:14;4.45;;;2.10;;
42144;SDS011;27813;43.516;11.890;2022-09-30T21:01:19;6.38;;;2.45;;
42144;SDS011;27813;43.516;11.890;2022-09-30T21:05:26;8.23;;;2.40;;
42144;SDS011;27813;43.516;11.890;2022-09-30T21:09:30;6.63;;;2.25;;
42144;SDS011;27813;43.516;11.890;2022-09-30T21:13:41;6.15;;;2.38;;
42144;SDS011;27813;43.516;11.890;2022-09-30T21:17:54;5.60;;;2.28;;
42144;SDS011;27813;43.516;11.890;2022-09-30T21:21:59;7.05;;;2.58;;
42144;SDS011;27813;43.516;11.890;2022-09-30T21:26:07;8.95;;;2.97;;
42144;SDS011;27813;43.516;11.890;2022-09-30T21:30:17;9.25;;;3.50;;
42144;SDS011;27813;43.516;11.890;2022-09-30T21:34:21;10.85;;;5.18;;
42144;SDS011;27813;43.516;11.890;2022-09-30T21:38:28;12.05;;;4.55;;
42144;SDS011;27813;43.516;11.890;2022-09-30T21:42:36;11.70;;;5.85;;
42144;SDS011;27813;43.516;11.890;2022-09-30T21:46:41;21.30;;;10.27;;
42144;SDS011;27813;43.516;11.890;2022-09-30T21:50:50;17.65;;;4.68;;
42144;SDS011;27813;43.516;11.890;2022-09-30T21:54:55;10.68;;;4.20;;
42144;SDS011;27813;43.516;11.890;2022-09-30T21:58:59;8.15;;;4.20;;
42144;SDS011;27813;43.516;11.890;2022-09-30T22:03:04;9.07;;;3.30;;
42144;SDS011;27813;43.516;11.890;2022-09-30T22:07:08;10.07;;;6.00;;
42144;SDS011;27813;43.516;11.890;2022-09-30T22:15:19;12.18;;;3.85;;
42144;SDS011;27813;43.516;11.890;2022-09-30T22:23:27;16.25;;;4.97;;
42144;SDS011;27813;43.516;11.890;2022-09-30T22:27:32;10.38;;;4.40;;
42144;SDS011;27813;43.516;11.890;2022-09-30T22:31:39;11.38;;;3.78;;
42144;SDS011;27813;43.516;11.890;2022-09-30T22:35:44;12.82;;;4.07;;
42144;SDS011;27813;43.516;11.890;2022-09-30T22:40:06;20.67;;;5.13;;
42144;SDS011;27813;43.516;11.890;2022-09-30T22:44:10;16.27;;;5.40;;
42144;SDS011;27813;43.516;11.890;2022-09-30T22:48:15;21.55;;;5.50;;
42144;SDS011;27813;43.516;11.890;2022-09-30T22:52:20;22.88;;;8.07;;
42144;SDS011;27813;43.516;11.890;2022-09-30T22:56:25;15.70;;;5.20;;
42144;SDS011;27813;43.516;11.890;2022-09-30T23:00:55;8.88;;;3.33;;
42144;SDS011;27813;43.516;11.890;2022-09-30T23:05:00;12.98;;;4.25;;
42144;SDS011;27813;43.516;11.890;2022-09-30T23:09:05;11.90;;;4.00;;
42144;SDS011;27813;43.516;11.890;2022-09-30T23:13:10;11.57;;;3.95;;
42144;SDS011;27813;43.516;11.890;2022-09-30T23:17:15;10.80;;;3.70;;
42144;SDS011;27813;43.516;11.890;2022-09-30T23:21:20;16.27;;;4.15;;
42144;SDS011;27813;43.516;11.890;2022-09-30T23:25:24;10.85;;;3.63;;
42144;SDS011;27813;43.516;11.890;2022-09-30T23:29:28;11.75;;;4.40;;
